• Join FlightAware (Why Join?)
  • Login
  • US Flag 
08:52PM EDT


 

Airport Tracker/Info


-or-


 

Live Flight TrackerFlight Track Log ✈ RHC9861 ✈ 25-Sep-2013 ✈ ZPJH / JHG - ZPLJ / LJG

Flight Track Log - Related Links

Times and Time Zones

All times are in EDT time to prevent confusion due to time zone crossing. See the RHC9861 flight status page for this flight to view local times or setup timezone preferences in your user account.

Time Position Orientation Groundspeed Altitude Reporting Facility
EDT Latitude Longitude Course Direction KTS MPH feet Rate Location/Type
03:49AM 22.5517 100.6985 354° North  Level Estimated
03:50AM 22.6343 100.6897 354° North  Level Estimated
03:51AM 22.7168 100.6810 354° North  Level Estimated
03:52AM 22.7994 100.6722 354° North  Level Estimated
03:53AM 22.8819 100.6634 354° North  Level Estimated
03:54AM 22.9645 100.6546 354° North  Level Estimated
03:55AM 23.0470 100.6457 354° North  Level Estimated
03:56AM 23.1295 100.6369 354° North  Level Estimated
03:57AM 23.2121 100.6281 354° North  Level Estimated
03:58AM 23.2946 100.6192 354° North  Level Estimated
03:59AM 23.3771 100.6103 354° North  Level Estimated
04:00AM 23.4597 100.6014 354° North  Level Estimated
04:01AM 23.5422 100.5926 354° North  Level Estimated
04:02AM 23.6248 100.5837 354° North  Level Estimated
04:03AM 23.7073 100.5748 354° North  Level Estimated
04:04AM 23.7899 100.5658 354° North  Level Estimated
04:05AM 23.8724 100.5569 354° North  Level Estimated
04:06AM 23.9549 100.5480 354° North  Level Estimated
04:07AM 24.0375 100.5390 354° North  Level Estimated
04:08AM 24.1200 100.5300 354° North  Level Estimated
04:09AM 24.2026 100.5210 354° North  Level Estimated
04:10AM 24.2851 100.5120 354° North  Level Estimated
04:11AM 24.3676 100.5031 354° North  Level Estimated
04:12AM 24.4501 100.4940 354° North  Level Estimated
04:13AM 24.5327 100.4850 354° North  Level Estimated
04:14AM 24.6152 100.4760 354° North  Level Estimated
04:15AM 24.6977 100.4669 354° North  Level Estimated
04:16AM 24.7803 100.4578 354° North  Level Estimated
04:17AM 24.8628 100.4488 354° North  Level Estimated
04:18AM 24.9453 100.4397 354° North  Level Estimated
04:19AM 25.0279 100.4306 354° North  Level Estimated
04:20AM 25.1104 100.4215 354° North  Level Estimated
04:21AM 25.1929 100.4124 354° North  Level Estimated
04:22AM 25.2754 100.4032 354° North  Level Estimated
04:23AM 25.3580 100.3941 354° North  Level Estimated
04:24AM 25.4405 100.3849 354° North  Level Estimated
04:25AM 25.5230 100.3757 354° North  Level Estimated
04:26AM 25.6056 100.3665 354° North  Level Estimated
04:27AM 25.6881 100.3573 354° North  Level Estimated
04:28AM 25.7706 100.3481 354° North  Level Estimated
04:29AM 25.8531 100.3389 354° North  Level Estimated
04:30AM 25.9357 100.3297 354° North  Level Estimated
04:31AM 26.0182 100.3204 354° North  Level Estimated
04:32AM 26.1007 100.3111 354° North  Level Estimated
04:33AM 26.1832 100.3019 354° North  Level Estimated
04:34AM 26.2658 100.2926 354° North  Level Estimated
04:35AM 26.3483 100.2833 354° North  Level Estimated
04:36AM 26.4308 100.2740 354° North  Level Estimated
04:37AM 26.5133 100.2646 354° North  Level Estimated
04:38AM 26.5958 100.2553 354° North  Level Estimated
04:39AM 26.6784 100.2459 354° North  Level Estimated
04:40AM 26.6792 100.2458 354° North  Level Estimated
04:41AM 26.6792 100.2458 138° Southeast  Level Estimated
04:42AM 26.6792 100.2458 138° Southeast  Level Estimated
04:43AM 26.6792 100.2458 138° Southeast  Level Estimated
04:44AM 26.6792 100.2458 138° Southeast  Level Estimated
04:45AM 26.6792 100.2458 138° Southeast  Level Estimated